Time;durP1;ratioP1;P1;durP2;ratioP2;P2;SDS_P1;SDS_P2;PMS_P1;PMS_P2;Temp;Humidity;BMP_temperature;BMP_pressure;BME280_temperature;BME280_humidity;BME280_pressure;Samples;Min_cycle;Max_cycle;Signal;HPM_P1;HPM_P2
2023/12/31 00:01:35;;;;;;;4.97;2.10;;;8.00;99.90;;;;;;5055527;28;20198;-74
2023/12/31 00:04:02;;;;;;;2.63;1.90;;;8.00;99.90;;;;;;5055505;28;20229;-75
2023/12/31 00:06:27;;;;;;;2.13;1.43;;;8.10;99.90;;;;;;5055609;28;20167;-74
2023/12/31 00:08:53;;;;;;;3.20;2.00;;;8.00;99.90;;;;;;5055392;28;20428;-75
2023/12/31 00:11:18;;;;;;;2.23;2.03;;;8.00;99.90;;;;;;5055025;28;20170;-74
2023/12/31 00:13:44;;;;;;;2.40;1.40;;;8.00;99.90;;;;;;5054837;28;20194;-74
2023/12/31 00:16:14;;;;;;;1.97;1.77;;;8.00;99.90;;;;;;5055114;28;20200;-73
2023/12/31 00:18:39;;;;;;;5.70;1.70;;;7.90;99.90;;;;;;5053567;28;20578;-75
2023/12/31 00:21:05;;;;;;;2.20;2.00;;;8.00;99.90;;;;;;5053460;28;20410;-74
2023/12/31 00:23:31;;;;;;;3.20;1.60;;;8.00;99.90;;;;;;5053064;28;20301;-73
2023/12/31 00:25:56;;;;;;;3.70;1.57;;;8.00;99.90;;;;;;5054089;28;20179;-74
2023/12/31 00:28:22;;;;;;;2.10;1.80;;;8.00;99.90;;;;;;5053212;28;20634;-74
2023/12/31 00:30:47;;;;;;;2.30;2.10;;;7.90;99.90;;;;;;5055773;28;20174;-75
2023/12/31 00:33:13;;;;;;;1.90;1.70;;;7.90;99.90;;;;;;5055754;28;20195;-75
2023/12/31 00:35:38;;;;;;;3.10;2.63;;;8.00;99.90;;;;;;5056210;28;20205;-74
2023/12/31 00:38:04;;;;;;;5.00;2.70;;;7.90;99.90;;;;;;5053641;28;20175;-75
2023/12/31 00:40:29;;;;;;;3.03;1.87;;;7.90;99.90;;;;;;5055530;28;20225;-75
2023/12/31 00:42:57;;;;;;;2.33;1.97;;;7.90;99.90;;;;;;5055451;28;20187;-75
2023/12/31 00:45:22;;;;;;;1.97;1.50;;;8.00;99.90;;;;;;5055383;28;20173;-75
2023/12/31 00:47:48;;;;;;;5.13;1.90;;;8.00;99.90;;;;;;5055683;28;20897;-75
2023/12/31 00:50:13;;;;;;;2.93;2.20;;;8.20;99.90;;;;;;5055287;28;20167;-75
2023/12/31 00:52:39;;;;;;;2.00;1.50;;;8.30;99.90;;;;;;5054567;28;20209;-75
2023/12/31 00:55:05;;;;;;;2.13;1.90;;;8.40;99.90;;;;;;5055247;28;20908;-75
2023/12/31 00:57:30;;;;;;;4.50;2.43;;;8.70;99.90;;;;;;5054358;28;20669;-75
2023/12/31 00:59:56;;;;;;;2.20;1.67;;;8.80;99.90;;;;;;5056146;28;20406;-75
2023/12/31 01:02:22;;;;;;;2.80;1.80;;;8.90;99.90;;;;;;5053865;28;20187;-74
2023/12/31 01:04:47;;;;;;;1.67;1.40;;;9.10;99.90;;;;;;5053627;28;20163;-75
2023/12/31 01:07:13;;;;;;;1.33;1.20;;;9.20;99.90;;;;;;5052714;28;20192;-75
2023/12/31 01:09:39;;;;;;;1.30;1.10;;;9.30;99.90;;;;;;5052556;28;20582;-74
2023/12/31 01:12:04;;;;;;;1.73;1.60;;;9.30;99.90;;;;;;5051401;28;20167;-73
2023/12/31 01:14:30;;;;;;;1.27;1.10;;;9.40;99.90;;;;;;5052883;28;20428;-73
2023/12/31 01:16:56;;;;;;;2.20;1.43;;;9.40;99.90;;;;;;5052756;28;20681;-73
2023/12/31 01:19:21;;;;;;;1.20;1.00;;;9.40;99.90;;;;;;5052838;28;20190;-73
2023/12/31 01:21:48;;;;;;;1.77;1.13;;;9.40;99.90;;;;;;5051224;28;20645;-73
2023/12/31 01:24:13;;;;;;;1.60;1.50;;;9.40;99.90;;;;;;5052393;28;20183;-73
2023/12/31 01:26:39;;;;;;;3.27;1.27;;;9.50;99.90;;;;;;5053128;28;20406;-73
2023/12/31 01:29:04;;;;;;;1.47;1.20;;;9.40;99.90;;;;;;5053393;28;20167;-73
2023/12/31 01:31:30;;;;;;;1.53;1.00;;;9.40;99.90;;;;;;5052282;28;20182;-73
2023/12/31 01:33:55;;;;;;;1.40;1.20;;;9.40;99.90;;;;;;5052235;28;20198;-73
2023/12/31 01:36:24;;;;;;;1.67;1.57;;;9.40;99.90;;;;;;5052476;28;20191;-73
2023/12/31 01:38:50;;;;;;;1.60;1.50;;;9.50;99.90;;;;;;5052397;28;20163;-73
2023/12/31 01:41:16;;;;;;;1.43;1.10;;;9.50;99.90;;;;;;5052430;28;20406;-74
2023/12/31 01:43:41;;;;;;;2.17;1.37;;;9.50;99.90;;;;;;5052437;28;20424;-74
2023/12/31 01:46:09;;;;;;;5.43;1.40;;;9.50;99.90;;;;;;5053142;28;20232;-75
2023/12/31 01:48:36;;;;;;;3.43;1.70;;;9.40;99.90;;;;;;5052535;28;20541;-74
2023/12/31 01:51:02;;;;;;;1.50;1.40;;;9.40;99.90;;;;;;5053854;28;20413;-74
2023/12/31 01:53:29;;;;;;;1.53;1.37;;;9.40;99.90;;;;;;5053089;28;20448;-75
2023/12/31 01:55:57;;;;;;;1.97;1.70;;;9.40;99.90;;;;;;5053129;28;20445;-74
2023/12/31 01:58:22;;;;;;;2.00;1.50;;;9.40;99.90;;;;;;5052216;28;20409;-74
2023/12/31 02:00:49;;;;;;;1.77;1.60;;;9.40;99.90;;;;;;5052896;28;20408;-74
2023/12/31 02:03:15;;;;;;;1.60;1.50;;;9.40;99.90;;;;;;5052294;28;20190;-74
2023/12/31 02:05:41;;;;;;;1.40;1.30;;;9.40;99.90;;;;;;5052892;28;20417;-74
2023/12/31 02:08:07;;;;;;;3.47;1.47;;;9.40;99.90;;;;;;5053014;28;20417;-74
2023/12/31 02:10:33;;;;;;;3.50;1.80;;;9.40;99.90;;;;;;5052685;28;20482;-75
2023/12/31 02:12:59;;;;;;;1.60;1.30;;;9.40;99.90;;;;;;5052721;28;20202;-75
2023/12/31 02:15:32;;;;;;;3.50;1.30;;;9.40;99.90;;;;;;5052594;28;20464;-75
2023/12/31 02:18:00;;;;;;;2.13;1.93;;;9.40;99.90;;;;;;5052905;28;20429;-74
2023/12/31 02:20:26;;;;;;;3.10;1.80;;;9.40;99.90;;;;;;5052375;28;20401;-75
2023/12/31 02:22:52;;;;;;;1.50;1.40;;;9.50;99.90;;;;;;5052340;28;20421;-74
2023/12/31 02:25:22;;;;;;;2.23;1.63;;;9.40;99.90;;;;;;5052663;28;20962;-73
2023/12/31 02:27:48;;;;;;;3.23;2.10;;;9.50;99.90;;;;;;5051765;28;20497;-73
2023/12/31 02:30:13;;;;;;;1.57;1.47;;;9.40;99.90;;;;;;5051779;28;20838;-73
2023/12/31 02:32:39;;;;;;;2.20;1.43;;;9.40;99.90;;;;;;5051369;28;20211;-73
2023/12/31 02:35:05;;;;;;;2.57;1.63;;;9.40;99.90;;;;;;5051510;28;20634;-73
2023/12/31 02:37:30;;;;;;;1.20;1.10;;;9.30;99.90;;;;;;5050406;28;20171;-73
2023/12/31 02:39:56;;;;;;;1.80;1.23;;;9.30;99.90;;;;;;5051627;28;20420;-73
2023/12/31 02:42:21;;;;;;;1.60;1.50;;;9.20;99.90;;;;;;5051311;28;20214;-73
2023/12/31 02:44:47;;;;;;;2.43;1.90;;;9.10;99.90;;;;;;5051631;28;20163;-73
2023/12/31 02:47:13;;;;;;;2.90;1.43;;;9.10;99.90;;;;;;5051557;28;20175;-73
2023/12/31 02:49:39;;;;;;;2.17;1.70;;;9.10;99.90;;;;;;5050216;28;20178;-73
2023/12/31 02:52:05;;;;;;;3.23;1.97;;;9.00;99.90;;;;;;5051130;28;20421;-73
2023/12/31 02:54:30;;;;;;;3.50;1.67;;;9.00;99.90;;;;;;5051456;28;20549;-74
2023/12/31 02:56:56;;;;;;;2.47;1.70;;;8.90;99.90;;;;;;5051467;28;20760;-73
2023/12/31 02:59:21;;;;;;;2.70;2.30;;;8.90;99.90;;;;;;5050212;28;20222;-73
2023/12/31 03:01:48;;;;;;;2.40;2.00;;;8.90;99.90;;;;;;5054912;28;20286;-73
2023/12/31 03:04:13;;;;;;;3.37;2.30;;;8.80;99.90;;;;;;5055090;28;20183;-73
2023/12/31 03:06:39;;;;;;;2.53;2.23;;;8.80;99.90;;;;;;5055168;28;20422;-74
2023/12/31 03:09:06;;;;;;;3.60;2.47;;;8.70;99.90;;;;;;5055316;28;20165;-73
2023/12/31 03:11:32;;;;;;;2.60;2.20;;;8.70;99.90;;;;;;5053888;28;20171;-74
2023/12/31 03:13:58;;;;;;;3.30;2.00;;;8.70;99.90;;;;;;5053642;28;20433;-74
2023/12/31 03:16:24;;;;;;;4.43;2.23;;;8.70;99.90;;;;;;5055086;28;20444;-74
2023/12/31 03:18:53;;;;;;;2.80;2.10;;;8.80;99.90;;;;;;5055087;28;20217;-74
2023/12/31 03:21:19;;;;;;;5.20;2.07;;;8.70;99.90;;;;;;5055102;28;20447;-73
2023/12/31 03:23:44;;;;;;;2.40;2.13;;;8.70;99.90;;;;;;5055396;28;20432;-75
2023/12/31 03:26:10;;;;;;;3.13;2.00;;;8.70;99.90;;;;;;5057378;28;20668;-75
2023/12/31 03:28:36;;;;;;;3.53;2.60;;;8.70;99.90;;;;;;5056523;28;20194;-74
2023/12/31 03:31:03;;;;;;;4.13;2.60;;;8.70;99.90;;;;;;5056650;28;20242;-74
2023/12/31 03:33:29;;;;;;;2.60;2.30;;;8.80;99.90;;;;;;5056728;28;20428;-74
2023/12/31 03:35:54;;;;;;;2.57;2.37;;;8.70;99.90;;;;;;5056811;28;20859;-75
2023/12/31 03:38:20;;;;;;;3.23;2.70;;;8.70;99.90;;;;;;5055231;28;20860;-75
2023/12/31 03:40:45;;;;;;;2.67;2.23;;;8.70;99.90;;;;;;5056638;28;20175;-74
2023/12/31 03:43:11;;;;;;;3.70;2.17;;;8.70;99.90;;;;;;5054924;28;20183;-74
2023/12/31 03:45:36;;;;;;;3.20;2.20;;;8.70;99.90;;;;;;5054594;28;20217;-74
2023/12/31 03:48:02;;;;;;;3.17;2.23;;;8.80;99.90;;;;;;5054590;28;20779;-73
2023/12/31 03:50:28;;;;;;;3.07;2.13;;;8.80;99.90;;;;;;5054505;28;20174;-73
2023/12/31 03:52:53;;;;;;;3.70;2.10;;;8.80;99.90;;;;;;5052777;28;20986;-73
2023/12/31 03:55:19;;;;;;;5.77;2.10;;;8.80;99.90;;;;;;5054269;28;20191;-73
2023/12/31 03:57:44;;;;;;;2.53;2.33;;;8.70;99.90;;;;;;5054670;28;20171;-75
2023/12/31 04:00:10;;;;;;;5.87;2.70;;;8.80;99.90;;;;;;5055637;28;20166;-75
2023/12/31 04:02:36;;;;;;;5.90;2.77;;;8.80;99.90;;;;;;5055631;28;20530;-74
2023/12/31 04:05:03;;;;;;;2.47;2.27;;;8.80;99.90;;;;;;5055889;28;20408;-74
2023/12/31 04:07:28;;;;;;;2.30;2.10;;;8.80;99.90;;;;;;5054255;28;20163;-75
2023/12/31 04:09:54;;;;;;;3.20;2.60;;;8.80;99.90;;;;;;5054116;28;20901;-74
2023/12/31 04:12:19;;;;;;;4.23;2.57;;;8.80;99.90;;;;;;5052742;28;20193;-74
2023/12/31 04:14:45;;;;;;;2.93;2.40;;;8.90;99.90;;;;;;5054357;28;20668;-75
2023/12/31 04:17:10;;;;;;;3.00;2.40;;;8.90;99.90;;;;;;5054607;28;20293;-75
2023/12/31 04:19:36;;;;;;;2.67;2.23;;;8.90;99.90;;;;;;5056523;28;20195;-74
2023/12/31 04:22:02;;;;;;;2.13;1.80;;;8.90;99.90;;;;;;5054874;28;20194;-73
2023/12/31 04:24:27;;;;;;;2.33;2.13;;;8.90;99.90;;;;;;5053748;28;20163;-73
2023/12/31 04:26:53;;;;;;;2.63;2.10;;;8.90;99.90;;;;;;5053838;28;20646;-73
2023/12/31 04:29:18;;;;;;;2.20;1.80;;;8.90;99.90;;;;;;5053696;28;20167;-74
2023/12/31 04:31:46;;;;;;;2.07;1.77;;;8.90;99.90;;;;;;5053515;28;20174;-73
2023/12/31 04:34:11;;;;;;;1.57;1.40;;;8.90;99.90;;;;;;5052248;28;20240;-73
2023/12/31 04:36:40;;;;;;;3.43;2.33;;;8.90;99.90;;;;;;5053683;28;20929;-75
2023/12/31 04:39:06;;;;;;;2.47;2.00;;;8.80;99.90;;;;;;5053580;28;20277;-73
2023/12/31 04:41:32;;;;;;;3.00;1.90;;;8.80;99.90;;;;;;5053430;28;20397;-74
2023/12/31 04:43:57;;;;;;;2.13;2.00;;;8.70;99.90;;;;;;5053400;28;20183;-73
2023/12/31 04:46:23;;;;;;;2.40;2.20;;;8.70;99.90;;;;;;5053392;28;20186;-73
2023/12/31 04:48:48;;;;;;;4.43;1.90;;;8.70;99.90;;;;;;5053482;28;20175;-74
2023/12/31 04:51:27;;;;;;;2.50;2.10;;;8.80;99.90;;;;;;5052129;28;20175;-73
2023/12/31 04:53:53;;;;;;;2.50;2.30;;;8.80;99.90;;;;;;5055303;28;20210;-74
2023/12/31 04:56:26;;;;;;;2.50;1.63;;;8.80;99.90;;;;;;5054182;28;20457;-73
2023/12/31 04:58:58;;;;;;;2.13;1.93;;;8.80;99.90;;;;;;5053448;28;20406;-73
2023/12/31 05:01:26;;;;;;;2.53;1.80;;;8.80;99.90;;;;;;5053128;28;20415;-73
2023/12/31 05:03:52;;;;;;;2.00;1.80;;;8.70;99.90;;;;;;5053018;28;20430;-73
2023/12/31 05:06:17;;;;;;;6.50;2.07;;;8.70;99.90;;;;;;5053001;28;20504;-74
2023/12/31 05:08:44;;;;;;;4.07;1.70;;;8.70;99.90;;;;;;5053084;28;20659;-74
2023/12/31 05:11:11;;;;;;;2.10;1.90;;;8.70;99.90;;;;;;5053019;28;20231;-74
2023/12/31 05:13:40;;;;;;;2.40;2.10;;;8.70;99.90;;;;;;5052623;28;20436;-74
2023/12/31 05:16:07;;;;;;;2.80;2.00;;;8.70;99.90;;;;;;5052814;28;20453;-74
2023/12/31 05:18:34;;;;;;;4.90;1.70;;;8.70;99.90;;;;;;5052649;28;20503;-73
2023/12/31 05:21:01;;;;;;;2.10;1.60;;;8.70;99.90;;;;;;5052610;28;20488;-74
2023/12/31 05:23:27;;;;;;;1.97;1.77;;;8.80;99.90;;;;;;5052188;28;20999;-75
2023/12/31 05:25:53;;;;;;;2.70;1.90;;;8.80;99.90;;;;;;5052669;28;20475;-75
2023/12/31 05:28:18;;;;;;;2.20;1.73;;;8.70;99.90;;;;;;5052718;28;20409;-75
2023/12/31 05:30:44;;;;;;;2.50;2.03;;;8.70;99.90;;;;;;5052594;28;20171;-75
2023/12/31 05:33:13;;;;;;;1.77;1.67;;;8.70;99.90;;;;;;5052259;28;20186;-75
2023/12/31 05:35:38;;;;;;;4.33;1.97;;;8.80;99.90;;;;;;5052435;28;20206;-74
2023/12/31 05:38:04;;;;;;;3.10;1.90;;;8.80;99.90;;;;;;5052483;28;20401;-75
2023/12/31 05:40:30;;;;;;;2.87;1.67;;;8.80;99.90;;;;;;5052404;28;20792;-74
2023/12/31 05:42:55;;;;;;;2.40;2.20;;;8.80;99.90;;;;;;5052125;28;20669;-75
2023/12/31 05:45:21;;;;;;;2.03;1.30;;;8.80;99.90;;;;;;5052279;28;20179;-75
2023/12/31 05:47:46;;;;;;;2.73;1.90;;;8.80;99.90;;;;;;5052307;28;20178;-75
2023/12/31 05:50:15;;;;;;;5.63;1.50;;;8.80;99.90;;;;;;5052278;28;20186;-74
2023/12/31 05:52:41;;;;;;;3.00;1.93;;;8.80;99.90;;;;;;5051851;28;20199;-74
2023/12/31 05:55:07;;;;;;;2.13;1.70;;;8.80;99.90;;;;;;5052090;28;20412;-75
2023/12/31 05:57:33;;;;;;;1.90;1.50;;;8.80;99.90;;;;;;5050886;28;20928;-75
2023/12/31 06:00:00;;;;;;;4.07;2.33;;;8.70;99.90;;;;;;5052066;28;20401;-75
2023/12/31 06:02:25;;;;;;;1.53;1.30;;;8.60;99.90;;;;;;5051447;28;20190;-75
2023/12/31 06:04:51;;;;;;;4.10;1.97;;;8.60;99.90;;;;;;5052003;28;20756;-74
2023/12/31 06:07:16;;;;;;;2.23;1.53;;;8.60;99.90;;;;;;5051983;28;20175;-75
2023/12/31 06:09:42;;;;;;;3.73;2.13;;;8.60;99.90;;;;;;5052014;28;20199;-75
2023/12/31 06:12:08;;;;;;;2.90;1.73;;;8.50;99.90;;;;;;5051673;28;20175;-74
2023/12/31 06:14:33;;;;;;;3.23;1.77;;;8.50;99.90;;;;;;5051605;28;20195;-75
2023/12/31 06:16:59;;;;;;;3.20;1.70;;;8.50;99.90;;;;;;5051886;28;20688;-75
2023/12/31 06:19:25;;;;;;;1.50;1.30;;;8.50;99.90;;;;;;5051836;28;20163;-75
2023/12/31 06:21:52;;;;;;;2.00;1.60;;;8.60;99.90;;;;;;5051671;28;20155;-75
2023/12/31 06:24:17;;;;;;;2.00;1.80;;;8.60;99.90;;;;;;5051714;28;20490;-75
2023/12/31 06:26:43;;;;;;;2.27;1.90;;;8.60;99.90;;;;;;5051919;28;20401;-74
2023/12/31 06:29:09;;;;;;;3.50;2.33;;;8.60;99.90;;;;;;5051690;28;20171;-74
2023/12/31 06:31:36;;;;;;;1.80;1.60;;;8.70;99.90;;;;;;5051548;28;20178;-74
2023/12/31 06:34:01;;;;;;;2.37;1.57;;;8.60;99.90;;;;;;5051626;28;20190;-76
2023/12/31 06:36:27;;;;;;;2.70;1.60;;;8.60;99.90;;;;;;5054942;28;20453;-75
2023/12/31 06:38:52;;;;;;;2.03;1.53;;;8.60;99.90;;;;;;5054631;28;20646;-74
2023/12/31 06:41:21;;;;;;;2.87;1.80;;;8.60;99.90;;;;;;5055770;28;20510;-75
2023/12/31 06:43:47;;;;;;;2.50;2.00;;;8.60;99.90;;;;;;5054086;28;20552;-75
2023/12/31 06:46:13;;;;;;;1.60;1.50;;;8.70;99.90;;;;;;5055816;28;20413;-74
2023/12/31 06:48:38;;;;;;;2.00;1.80;;;8.70;99.90;;;;;;5055735;28;20496;-75
2023/12/31 06:51:05;;;;;;;1.83;1.57;;;8.70;99.90;;;;;;5055675;28;20254;-74
2023/12/31 06:53:33;;;;;;;1.83;1.53;;;8.70;99.90;;;;;;5055153;28;20206;-74
2023/12/31 06:56:02;;;;;;;1.87;1.47;;;8.70;99.90;;;;;;5055462;28;20510;-74
2023/12/31 06:58:27;;;;;;;2.00;1.40;;;8.70;99.90;;;;;;5055580;28;20397;-74
2023/12/31 07:00:53;;;;;;;2.13;1.77;;;8.80;99.90;;;;;;5055110;28;20776;-74
2023/12/31 07:03:19;;;;;;;1.70;1.50;;;8.80;99.90;;;;;;5055172;28;20202;-75
2023/12/31 07:05:44;;;;;;;4.17;1.93;;;8.80;99.90;;;;;;5054032;28;20178;-74
2023/12/31 07:08:10;;;;;;;5.23;1.57;;;8.80;99.90;;;;;;5054013;28;20179;-74
2023/12/31 07:10:35;;;;;;;2.30;1.90;;;8.90;99.90;;;;;;5055334;28;20646;-74
2023/12/31 07:13:01;;;;;;;1.70;1.60;;;8.90;99.90;;;;;;5054843;28;20183;-75
2023/12/31 07:15:26;;;;;;;3.53;1.87;;;8.90;99.90;;;;;;5054991;28;20186;-74
2023/12/31 07:17:52;;;;;;;6.20;2.10;;;9.00;99.90;;;;;;5055220;28;20170;-74
2023/12/31 07:20:17;;;;;;;1.60;1.33;;;9.00;99.90;;;;;;5055117;28;20159;-74
2023/12/31 07:22:43;;;;;;;2.03;1.43;;;8.90;99.90;;;;;;5054833;28;20221;-74
2023/12/31 07:25:09;;;;;;;2.33;2.00;;;8.90;99.90;;;;;;5055005;28;20262;-74
2023/12/31 07:27:34;;;;;;;2.00;1.37;;;8.80;99.90;;;;;;5054936;28;20170;-74
2023/12/31 07:30:00;;;;;;;1.60;1.50;;;8.80;99.90;;;;;;5054869;28;20171;-74
2023/12/31 07:32:25;;;;;;;2.03;1.50;;;8.70;99.90;;;;;;5054245;28;20545;-74
2023/12/31 07:34:51;;;;;;;2.00;1.53;;;8.70;99.90;;;;;;5054728;28;20163;-74
2023/12/31 07:37:16;;;;;;;1.63;1.50;;;8.70;99.90;;;;;;5054809;28;20195;-74
2023/12/31 07:39:42;;;;;;;2.03;1.63;;;8.70;99.90;;;;;;5054681;28;20209;-74
2023/12/31 07:42:08;;;;;;;3.50;1.73;;;8.80;99.90;;;;;;5054173;28;20246;-74
2023/12/31 07:44:33;;;;;;;1.70;1.53;;;8.70;99.90;;;;;;5054558;28;20509;-75
2023/12/31 07:46:59;;;;;;;3.37;2.07;;;8.70;99.90;;;;;;5054601;28;20167;-75
2023/12/31 07:49:25;;;;;;;1.73;1.63;;;8.80;99.90;;;;;;5053711;28;20550;-75
2023/12/31 07:51:50;;;;;;;2.07;1.70;;;8.80;99.90;;;;;;5054166;28;20174;-74
2023/12/31 07:54:16;;;;;;;3.83;1.90;;;8.80;99.90;;;;;;5054442;28;20482;-74
2023/12/31 07:56:42;;;;;;;1.77;1.50;;;8.80;99.90;;;;;;5054256;28;20198;-74
2023/12/31 07:59:08;;;;;;;3.00;2.00;;;8.90;99.90;;;;;;5054233;28;20170;-75
2023/12/31 08:01:33;;;;;;;3.77;2.40;;;8.90;99.90;;;;;;5053887;28;20159;-75
2023/12/31 08:03:59;;;;;;;4.00;2.33;;;9.00;99.90;;;;;;5054176;28;20448;-74
2023/12/31 08:06:26;;;;;;;3.03;2.63;;;9.00;99.90;;;;;;5054039;28;20515;-75
2023/12/31 08:08:52;;;;;;;2.90;2.33;;;9.00;99.90;;;;;;5053813;28;20175;-75
2023/12/31 08:11:18;;;;;;;5.30;2.53;;;9.10;99.90;;;;;;5054041;28;20408;-74
2023/12/31 08:13:44;;;;;;;8.90;2.50;;;9.30;99.90;;;;;;5053644;28;20187;-74
2023/12/31 08:16:09;;;;;;;7.10;2.17;;;9.40;99.90;;;;;;5052810;28;21081;-74
2023/12/31 08:18:35;;;;;;;3.10;2.50;;;9.50;99.90;;;;;;5054055;28;20591;-75
2023/12/31 08:21:01;;;;;;;4.20;3.40;;;9.60;99.90;;;;;;5053970;28;20167;-74
2023/12/31 08:23:26;;;;;;;3.00;2.33;;;9.70;99.90;;;;;;5053726;28;20191;-74
2023/12/31 08:25:52;;;;;;;2.70;1.87;;;9.80;99.90;;;;;;5053801;28;20718;-74
2023/12/31 08:28:17;;;;;;;2.43;2.00;;;9.90;99.90;;;;;;5053807;28;20233;-74
2023/12/31 08:30:43;;;;;;;2.47;1.80;;;10.00;99.90;;;;;;5053764;28;20202;-74
2023/12/31 08:33:08;;;;;;;1.57;1.37;;;10.10;99.90;;;;;;5053336;28;20187;-75
2023/12/31 08:35:34;;;;;;;2.33;1.83;;;10.10;99.90;;;;;;5053632;28;20198;-74
2023/12/31 08:37:59;;;;;;;1.57;1.43;;;10.00;99.90;;;;;;5053639;28;20517;-75
2023/12/31 08:40:25;;;;;;;3.83;1.80;;;10.00;99.90;;;;;;5053384;28;20166;-74
2023/12/31 08:42:50;;;;;;;2.23;2.03;;;10.10;99.90;;;;;;5053227;28;20186;-75
2023/12/31 08:45:16;;;;;;;2.03;1.40;;;10.00;99.90;;;;;;5053475;28;20174;-75
2023/12/31 08:47:42;;;;;;;1.87;1.33;;;10.00;99.90;;;;;;5053513;28;20167;-74
2023/12/31 08:50:09;;;;;;;1.60;1.50;;;10.00;99.90;;;;;;5053429;28;20159;-74
2023/12/31 08:52:37;;;;;;;1.40;1.30;;;10.00;99.90;;;;;;5053028;28;20441;-74
2023/12/31 08:55:03;;;;;;;3.60;2.00;;;10.00;99.90;;;;;;5053184;28;20825;-76
2023/12/31 08:57:29;;;;;;;2.03;1.53;;;9.90;99.90;;;;;;5051599;28;20418;-74
2023/12/31 08:59:54;;;;;;;2.23;1.80;;;10.00;99.90;;;;;;5053113;28;20424;-75
2023/12/31 09:02:20;;;;;;;3.67;1.83;;;9.90;99.90;;;;;;5052893;28;20198;-75
2023/12/31 09:04:45;;;;;;;3.47;1.70;;;9.90;99.90;;;;;;5053024;28;20220;-75
2023/12/31 09:07:11;;;;;;;1.73;1.30;;;9.90;99.90;;;;;;5052953;28;20163;-74
2023/12/31 09:09:36;;;;;;;5.17;2.10;;;9.90;99.90;;;;;;5053010;28;20178;-75
2023/12/31 09:12:02;;;;;;;1.77;1.57;;;9.90;99.90;;;;;;5051427;28;20578;-75
2023/12/31 09:14:29;;;;;;;2.10;1.60;;;10.00;99.90;;;;;;5052967;28;20220;-75
2023/12/31 09:16:54;;;;;;;2.57;2.07;;;10.00;99.90;;;;;;5051589;28;20590;-75
2023/12/31 09:19:20;;;;;;;2.93;1.90;;;10.00;99.90;;;;;;5052893;28;20488;-75
2023/12/31 09:21:45;;;;;;;4.40;1.63;;;10.10;99.90;;;;;;5052577;28;20252;-74
2023/12/31 09:24:11;;;;;;;1.67;1.57;;;10.10;99.90;;;;;;5052605;28;20225;-75
2023/12/31 09:26:36;;;;;;;4.90;1.80;;;10.20;99.90;;;;;;5052700;28;20249;-74
2023/12/31 09:29:02;;;;;;;2.10;1.70;;;10.30;99.90;;;;;;5052439;28;20189;-74
2023/12/31 09:31:27;;;;;;;3.30;1.70;;;10.40;99.90;;;;;;5052505;28;20177;-75
2023/12/31 09:33:53;;;;;;;2.23;2.03;;;10.40;99.90;;;;;;5051194;28;20197;-75
2023/12/31 09:36:18;;;;;;;3.17;2.83;;;10.60;99.90;;;;;;5051289;28;20670;-75
2023/12/31 09:38:44;;;;;;;3.07;2.63;;;10.70;99.90;;;;;;5052425;28;20167;-76
2023/12/31 09:41:16;;;;;;;3.23;2.47;;;10.90;99.90;;;;;;5052414;28;20163;-74
2023/12/31 09:43:44;;;;;;;2.73;2.27;;;11.10;99.90;;;;;;5051656;28;20236;-68
2023/12/31 09:46:10;;;;;;;3.30;2.30;;;11.30;99.90;;;;;;5043006;28;20524;-68
2023/12/31 09:48:37;;;;;;;3.50;2.90;;;11.30;99.90;;;;;;5041523;28;20406;-70
2023/12/31 09:51:03;;;;;;;2.87;2.40;;;11.40;99.90;;;;;;5041102;28;20405;-71
2023/12/31 09:53:29;;;;;;;15.20;2.33;;;11.50;99.90;;;;;;5031935;28;20453;-70
2023/12/31 09:55:56;;;;;;;2.93;2.30;;;11.60;99.90;;;;;;5031998;28;20544;-71
2023/12/31 09:58:23;;;;;;;2.67;2.10;;;11.70;99.90;;;;;;5032247;28;20406;-69
2023/12/31 10:00:49;;;;;;;5.23;2.20;;;11.70;99.90;;;;;;5032159;28;20413;-69
2023/12/31 10:03:15;;;;;;;2.80;1.73;;;11.80;99.90;;;;;;5031940;28;20423;-68
2023/12/31 10:05:42;;;;;;;2.20;1.33;;;11.80;99.90;;;;;;5032070;28;20167;-68
2023/12/31 10:08:09;;;;;;;1.90;1.43;;;11.90;99.90;;;;;;5032137;28;20630;-68
2023/12/31 10:10:38;;;;;;;1.80;1.37;;;11.80;99.90;;;;;;5031207;28;20410;-69
2023/12/31 10:13:03;;;;;;;1.50;1.00;;;11.80;99.90;;;;;;5031724;28;20525;-68
2023/12/31 10:15:29;;;;;;;1.10;1.00;;;11.60;99.90;;;;;;5031946;28;20549;-70
2023/12/31 10:17:55;;;;;;;1.37;1.00;;;11.50;99.90;;;;;;5031954;28;20163;-70
2023/12/31 10:20:21;;;;;;;1.63;1.27;;;11.50;99.90;;;;;;5031973;28;20159;-70
2023/12/31 10:22:47;;;;;;;1.53;1.00;;;11.50;99.90;;;;;;5031535;28;20422;-69
2023/12/31 10:25:15;;;;;;;5.17;3.50;;;11.40;99.90;;;;;;5031805;28;20164;-69
2023/12/31 10:27:48;;;;;;;2.30;1.23;;;11.50;99.90;;;;;;5031822;28;20398;-70
2023/12/31 10:30:14;;;;;;;15.17;4.43;;;11.50;99.90;;;;;;5031797;28;20403;-70
2023/12/31 10:32:40;;;;;;;5.70;1.67;;;11.50;99.90;;;;;;5031387;28;20422;-68
2023/12/31 10:35:06;;;;;;;9.50;4.37;;;11.50;99.90;;;;;;5031624;28;20736;-68
2023/12/31 10:37:34;;;;;;;4.27;1.93;;;11.50;99.90;;;;;;5031709;28;20572;-70
2023/12/31 10:40:19;;;;;;;2.23;1.20;;;11.50;99.90;;;;;;5031721;28;20390;-69
2023/12/31 10:42:49;;;;;;;11.83;4.10;;;11.50;99.90;;;;;;5031321;28;20487;-70
2023/12/31 10:45:20;;;;;;;2.00;1.63;;;11.50;99.90;;;;;;5031666;28;20477;-71
2023/12/31 10:47:50;;;;;;;1.63;1.13;;;11.60;99.90;;;;;;5031544;28;20413;-70
2023/12/31 10:50:20;;;;;;;6.73;2.80;;;11.60;99.90;;;;;;5031647;28;20398;-71
2023/12/31 10:52:49;;;;;;;5.10;1.60;;;11.40;99.90;;;;;;5031163;28;20449;-70
2023/12/31 10:55:16;;;;;;;1.70;1.30;;;11.40;99.90;;;;;;5040524;28;20409;-69
2023/12/31 10:57:42;;;;;;;1.27;1.17;;;11.40;99.90;;;;;;5040151;28;20436;-70
2023/12/31 11:00:09;;;;;;;3.20;2.30;;;11.40;99.90;;;;;;5034063;28;20890;-69
2023/12/31 11:02:35;;;;;;;3.70;1.77;;;11.40;99.90;;;;;;5031166;28;20418;-69
2023/12/31 11:05:03;;;;;;;1.10;0.70;;;11.50;99.90;;;;;;5031419;28;20426;-69
2023/12/31 11:07:29;;;;;;;1.97;1.20;;;11.40;99.90;;;;;;5031405;28;20175;-70
2023/12/31 11:09:55;;;;;;;3.13;2.30;;;11.40;99.90;;;;;;5031339;28;20410;-68
2023/12/31 11:12:22;;;;;;;1.27;1.10;;;11.30;99.90;;;;;;5031129;28;20191;-69
2023/12/31 11:14:54;;;;;;;1.93;1.20;;;11.30;99.90;;;;;;5029999;28;20468;-69
2023/12/31 11:17:38;;;;;;;3.80;1.40;;;11.30;99.90;;;;;;5031345;28;20512;-69
2023/12/31 11:20:28;;;;;;;2.23;0.80;;;11.30;99.90;;;;;;5031358;28;20507;-69
2023/12/31 11:23:17;;;;;;;2.97;1.00;;;11.30;99.90;;;;;;5034615;28;20417;-69
2023/12/31 11:25:45;;;;;;;1.43;0.80;;;11.20;99.90;;;;;;5034971;28;20418;-69
2023/12/31 11:28:10;;;;;;;2.03;0.60;;;11.20;99.90;;;;;;5034772;28;20905;-69
2023/12/31 11:30:48;;;;;;;1.80;0.80;;;11.20;99.90;;;;;;5034875;28;20410;-69
2023/12/31 11:33:30;;;;;;;1.60;0.77;;;11.10;99.90;;;;;;5034609;28;20191;-69
2023/12/31 11:36:01;;;;;;;1.70;0.83;;;11.20;99.90;;;;;;5034644;28;20600;-69
2023/12/31 11:38:27;;;;;;;0.83;0.60;;;11.20;99.90;;;;;;5034764;28;20408;-69
2023/12/31 11:40:54;;;;;;;1.10;0.83;;;11.10;99.90;;;;;;5034707;28;20477;-69
2023/12/31 11:43:20;;;;;;;2.57;0.90;;;11.10;99.90;;;;;;5034423;28;20233;-69
2023/12/31 11:45:50;;;;;;;1.03;0.83;;;11.00;99.90;;;;;;5034636;28;20405;-69
2023/12/31 11:48:25;;;;;;;2.93;0.70;;;11.10;99.90;;;;;;5034509;28;20406;-68
2023/12/31 11:50:52;;;;;;;10.60;5.63;;;11.10;99.90;;;;;;5034435;28;20406;-69
2023/12/31 11:53:20;;;;;;;1.80;1.53;;;11.00;99.90;;;;;;5034156;28;20945;-70
2023/12/31 11:55:53;;;;;;;2.27;1.70;;;11.10;99.90;;;;;;5034353;28;20450;-70
2023/12/31 11:58:21;;;;;;;2.40;1.33;;;11.10;99.90;;;;;;5034705;28;20402;-70
2023/12/31 12:00:47;;;;;;;6.73;3.27;;;11.10;99.90;;;;;;5034345;28;20402;-70
2023/12/31 12:03:14;;;;;;;39.83;12.70;;;11.10;99.90;;;;;;5034128;28;20469;-70
2023/12/31 12:05:39;;;;;;;12.90;6.33;;;11.10;99.90;;;;;;5033102;28;21009;-70
2023/12/31 12:08:07;;;;;;;32.90;16.40;;;11.10;99.90;;;;;;5034237;28;20497;-70
2023/12/31 12:10:34;;;;;;;40.10;19.03;;;11.00;99.90;;;;;;5034148;28;20164;-70
2023/12/31 12:13:01;;;;;;;2.50;2.13;;;10.90;99.90;;;;;;5033925;28;20509;-70
2023/12/31 12:15:32;;;;;;;1.00;0.80;;;10.90;99.90;;;;;;5034061;28;20464;-69
2023/12/31 12:17:58;;;;;;;1.87;0.80;;;10.80;99.90;;;;;;5034166;28;20910;-70
2023/12/31 12:20:25;;;;;;;1.47;0.67;;;10.80;99.90;;;;;;5034032;28;20447;-71
2023/12/31 12:22:50;;;;;;;2.80;0.90;;;10.80;99.90;;;;;;5033803;28;20184;-69
2023/12/31 12:25:16;;;;;;;1.30;0.70;;;10.80;99.90;;;;;;5033840;28;20402;-71
2023/12/31 12:27:41;;;;;;;1.73;0.80;;;10.80;99.90;;;;;;5033879;28;20221;-72
2023/12/31 12:30:07;;;;;;;1.37;0.60;;;10.90;99.90;;;;;;5034011;28;20298;-71
2023/12/31 12:32:34;;;;;;;1.10;0.70;;;11.20;99.90;;;;;;5032693;28;20191;-72
2023/12/31 12:35:02;;;;;;;0.83;0.60;;;12.50;99.90;;;;;;5033801;28;20415;-72
2023/12/31 12:37:29;;;;;;;0.80;0.57;;;13.20;99.90;;;;;;5033725;28;20450;-69
2023/12/31 12:39:55;;;;;;;1.07;0.60;;;13.10;99.90;;;;;;5033840;28;20412;-70
2023/12/31 12:42:25;;;;;;;1.40;0.80;;;13.70;99.90;;;;;;5031876;28;20434;-70
2023/12/31 12:44:50;;;;;;;4.47;1.00;;;14.60;99.90;;;;;;5049356;28;20414;-70
2023/12/31 12:47:18;;;;;;;0.80;0.70;;;15.70;99.90;;;;;;5053384;28;20435;-70
2023/12/31 12:49:44;;;;;;;1.53;1.00;;;16.10;96.40;;;;;;5053281;28;20661;-68